createdAt,value
2022-09-20T00:01:22.380Z,97652.72
2022-09-20T00:03:52.886Z,97647.72
2022-09-20T00:06:22.189Z,97651.78
2022-09-20T00:08:49.698Z,97651.16
2022-09-20T00:11:22.226Z,97654.81
2022-09-20T00:13:50.858Z,97658.06
2022-09-20T00:16:27.787Z,97659.63
2022-09-20T00:18:58.671Z,97651.47
2022-09-20T00:21:31.204Z,97648.47
2022-09-20T00:23:58.413Z,97650.25
2022-09-20T00:26:27.062Z,97645.56
2022-09-20T00:28:53.928Z,97649.31
2022-09-20T00:31:20.672Z,97641.28
2022-09-20T00:34:06.007Z,97644.63
2022-09-20T00:36:32.625Z,97640.19
2022-09-20T00:39:03.432Z,97640.53
2022-09-20T00:41:31.783Z,97644.19
2022-09-20T00:44:00.205Z,97642.94
2022-09-20T00:46:37.574Z,97634.25
2022-09-20T00:49:13.940Z,97635.69
2022-09-20T00:51:44.963Z,97635.69
2022-09-20T00:54:16.978Z,97635.50
2022-09-20T00:56:46.579Z,97627.16
2022-09-20T00:59:22.137Z,97634.66
2022-09-20T01:01:56.487Z,97632.28
2022-09-20T01:04:27.051Z,97634.66
2022-09-20T01:06:56.328Z,97631.38
2022-09-20T01:09:22.736Z,97635.47
2022-09-20T01:11:51.963Z,97634.44
2022-09-20T01:14:22.151Z,97636.22
2022-09-20T01:16:48.646Z,97637.06
2022-09-20T01:19:58.185Z,97627.31
2022-09-20T01:22:33.257Z,97633.22
2022-09-20T01:25:28.742Z,97632.63
2022-09-20T01:27:55.407Z,97635.34
2022-09-20T01:30:32.224Z,97637.72
2022-09-20T01:33:07.745Z,97639.50
2022-09-20T01:35:35.431Z,97630.13
2022-09-20T01:38:12.267Z,97628.22
2022-09-20T01:40:56.855Z,97625.31
2022-09-20T01:43:35.339Z,97615.53
2022-09-20T01:46:12.328Z,97620.75
2022-09-20T01:48:40.249Z,97619.19
2022-09-20T01:51:18.845Z,97613.03
2022-09-20T01:53:45.273Z,97610.31
2022-09-20T01:56:29.894Z,97609.47
2022-09-20T01:59:35.319Z,97611.13
2022-09-20T02:02:22.165Z,97609.19
2022-09-20T02:05:22.367Z,97607.41
2022-09-20T02:08:03.849Z,97608.03
2022-09-20T02:10:52.002Z,97601.03
2022-09-20T02:13:28.288Z,97607.63
2022-09-20T02:15:57.692Z,97609.50
2022-09-20T02:18:36.353Z,97610.88
2022-09-20T02:21:48.743Z,97611.16
2022-09-20T02:24:21.170Z,97614.94
2022-09-20T02:27:24.725Z,97613.06
2022-09-20T02:30:12.738Z,97614.94
2022-09-20T02:32:45.116Z,97614.44
2022-09-20T02:35:44.994Z,97616.81
2022-09-20T02:38:36.296Z,97620.69
2022-09-20T02:41:18.020Z,97619.97
2022-09-20T02:44:06.951Z,97614.53
2022-09-20T02:47:15.629Z,97613.06
2022-09-20T02:50:16.390Z,97620.56
2022-09-20T02:53:04.273Z,97614.28
2022-09-20T02:55:41.140Z,97618.34
2022-09-20T02:58:32.361Z,97615.75
2022-09-20T03:01:21.188Z,97622.47
2022-09-20T03:04:11.936Z,97621.94
2022-09-20T03:06:56.547Z,97623.91
2022-09-20T03:09:34.877Z,97628.28
2022-09-20T03:12:27.094Z,97627.66
2022-09-20T03:15:29.509Z,97622.03
2022-09-20T03:18:42.220Z,97626.72
2022-09-20T03:21:22.659Z,97622.75
2022-09-20T03:24:01.033Z,97629.44
2022-09-20T03:26:42.471Z,97619.09
2022-09-20T03:29:16.678Z,97619.56
2022-09-20T03:32:13.219Z,97627.88
2022-09-20T03:34:58.899Z,97624.16
2022-09-20T03:37:53.029Z,97627.78
2022-09-20T03:40:45.592Z,97628.94
2022-09-20T03:43:37.895Z,97624.44
2022-09-20T03:46:27.773Z,97621.84
2022-09-20T03:49:36.099Z,97626.09
2022-09-20T03:52:35.556Z,97622.16
2022-09-20T03:55:22.517Z,97626.84
2022-09-20T03:58:29.807Z,97626.19
2022-09-20T04:01:10.570Z,97633.22
2022-09-20T04:03:53.679Z,97636.03
2022-09-20T04:06:41.276Z,97629.13
2022-09-20T04:09:07.636Z,97635.63
2022-09-20T04:12:02.169Z,97633.31
2022-09-20T04:15:04.320Z,97646.25
2022-09-20T04:17:39.904Z,97642.00
2022-09-20T04:20:28.533Z,97641.88
2022-09-20T04:22:59.170Z,97645.44
2022-09-20T04:25:33.980Z,97637.91
2022-09-20T04:28:09.450Z,97633.31
2022-09-20T04:30:43.897Z,97642.91
2022-09-20T04:33:20.746Z,97645.34
2022-09-20T04:36:30.091Z,97650.56
2022-09-20T04:39:11.830Z,97646.59
2022-09-20T04:42:03.308Z,97648.56
2022-09-20T04:44:52.659Z,97646.91
2022-09-20T04:47:47.584Z,97637.28
2022-09-20T04:50:29.911Z,97653.59
2022-09-20T04:53:15.608Z,97652.00
2022-09-20T04:56:01.836Z,97649.19
2022-09-20T04:58:38.300Z,97652.84
2022-09-20T05:01:17.531Z,97654.19
2022-09-20T05:04:32.232Z,97655.38
2022-09-20T05:07:10.743Z,97655.88
2022-09-20T05:10:13.571Z,97662.25
2022-09-20T05:12:46.380Z,97657.97
2022-09-20T05:15:24.828Z,97658.25
2022-09-20T05:18:03.429Z,97655.06
2022-09-20T05:20:48.236Z,97661.72
2022-09-20T05:23:32.958Z,97660.13
2022-09-20T05:26:17.699Z,97654.63
2022-09-20T05:28:59.987Z,97663.19
2022-09-20T05:31:40.971Z,97659.84
2022-09-20T05:34:31.991Z,97663.63
2022-09-20T05:37:16.573Z,97653.34
2022-09-20T05:39:57.122Z,97659.72
2022-09-20T05:42:47.413Z,97661.25
2022-09-20T05:45:31.289Z,97661.91
2022-09-20T05:48:11.074Z,97665.88
2022-09-20T05:50:55.533Z,97662.53
2022-09-20T05:54:01.101Z,97670.63
2022-09-20T05:57:16.056Z,97670.88
2022-09-20T06:00:03.958Z,97675.16
2022-09-20T06:02:51.816Z,97676.88
2022-09-20T06:05:42.650Z,97678.16
2022-09-20T06:08:24.846Z,97681.03
2022-09-20T06:10:56.255Z,97688.81
2022-09-20T06:13:41.341Z,97686.94
2022-09-20T06:16:14.066Z,97680.88
2022-09-20T06:18:50.048Z,97689.22
2022-09-20T06:21:16.422Z,97685.09
2022-09-20T06:23:43.127Z,97685.53
2022-09-20T06:26:26.543Z,97692.63
2022-09-20T06:29:03.019Z,97690.84
2022-09-20T06:31:29.657Z,97690.13
2022-09-20T06:34:04.312Z,97688.59
2022-09-20T06:36:55.131Z,97693.81
2022-09-20T06:39:55.669Z,97688.59
2022-09-20T06:42:27.520Z,97694.06
2022-09-20T06:44:54.443Z,97693.56
2022-09-20T06:47:27.197Z,97698.06
2022-09-20T06:50:00.047Z,97699.97
2022-09-20T06:52:29.162Z,97700.75
2022-09-20T06:54:58.654Z,97703.63
2022-09-20T06:57:35.292Z,97694.91
2022-09-20T07:00:04.510Z,97688.91
2022-09-20T07:02:33.457Z,97695.63
2022-09-20T07:04:59.896Z,97700.78
2022-09-20T07:07:26.380Z,97703.50
2022-09-20T07:09:55.437Z,97706.69
2022-09-20T07:12:21.828Z,97707.84
2022-09-20T07:14:50.512Z,97709.94
2022-09-20T07:17:16.928Z,97709.84
2022-09-20T07:19:43.495Z,97711.81
2022-09-20T07:22:09.984Z,97705.06
2022-09-20T07:24:40.558Z,97710.06
2022-09-20T07:27:11.458Z,97713.88
2022-09-20T07:29:38.075Z,97719.38
2022-09-20T07:32:07.102Z,97720.66
2022-09-20T07:34:33.673Z,97718.41
2022-09-20T07:37:00.213Z,97724.19
2022-09-20T07:39:29.555Z,97729.31
2022-09-20T07:41:58.364Z,97723.72
2022-09-20T07:44:29.700Z,97731.91
2022-09-20T07:46:58.142Z,97744.25
2022-09-20T07:49:29.899Z,97737.88
2022-09-20T07:51:59.285Z,97733.81
2022-09-20T07:54:28.234Z,97737.53
2022-09-20T07:56:54.767Z,97738.06
2022-09-20T07:59:21.316Z,97739.44
2022-09-20T08:01:47.795Z,97741.84
2022-09-20T08:04:19.427Z,97742.00
2022-09-20T08:06:46.322Z,97746.41
2022-09-20T08:09:13.626Z,97739.69
2022-09-20T08:11:42.025Z,97734.66
2022-09-20T08:14:15.422Z,97732.91
2022-09-20T08:16:50.205Z,97732.91
2022-09-20T08:19:21.926Z,97735.31
2022-09-20T08:21:54.390Z,97736.66
2022-09-20T08:24:22.052Z,97734.06
2022-09-20T08:26:48.947Z,97728.59
2022-09-20T08:29:15.446Z,97734.66
2022-09-20T08:31:44.613Z,97740.63
2022-09-20T08:34:15.190Z,97740.63
2022-09-20T08:36:47.237Z,97738.25
2022-09-20T08:42:09.128Z,97745.97
2022-09-20T08:45:00.514Z,97744.34
2022-09-20T08:47:32.100Z,97750.81
2022-09-20T08:50:17.306Z,97746.63
2022-09-20T08:52:49.461Z,97742.38
2022-09-20T08:55:21.629Z,97744.25
2022-09-20T08:57:52.565Z,97731.84
2022-09-20T09:00:23.318Z,97727.16
2022-09-20T09:05:52.736Z,97732.09
2022-09-20T09:08:37.556Z,97746.19
2022-09-20T09:11:12.820Z,97750.56
2022-09-20T09:14:01.662Z,97734.25
2022-09-20T09:16:35.410Z,97737.34
2022-09-20T09:22:20.828Z,97743.50
2022-09-20T09:25:10.262Z,97726.34
2022-09-20T09:27:57.184Z,97736.03
2022-09-20T09:30:44.682Z,97740.22
2022-09-20T09:33:30.710Z,97745.81
2022-09-20T09:36:00.264Z,97734.47
2022-09-20T09:38:34.845Z,97724.34
2022-09-20T09:41:08.974Z,97719.97
2022-09-20T09:43:37.568Z,97725.22
2022-09-20T09:46:25.366Z,97713.34
2022-09-20T09:49:15.693Z,97716.75
2022-09-20T09:52:01.817Z,97735.06
2022-09-20T09:54:43.355Z,97736.78
2022-09-20T09:57:55.790Z,97726.00
2022-09-20T10:00:24.205Z,97729.16
2022-09-20T10:03:09.598Z,97731.31
2022-09-20T10:06:04.782Z,97731.94
2022-09-20T10:08:43.858Z,97734.69
2022-09-20T10:11:23.352Z,97713.94
2022-09-20T10:14:25.055Z,97709.78
2022-09-20T10:16:51.510Z,97720.72
2022-09-20T10:19:58.283Z,97722.78
2022-09-20T10:23:21.384Z,97722.63
2022-09-20T10:26:13.305Z,97715.84
2022-09-20T10:28:48.521Z,97712.75
2022-09-20T10:31:29.348Z,97712.41
2022-09-20T10:34:39.921Z,97707.34
2022-09-20T10:37:19.128Z,97707.75
2022-09-20T10:39:59.766Z,97706.44
2022-09-20T10:42:53.987Z,97710.00
2022-09-20T10:46:03.356Z,97707.97
2022-09-20T10:48:52.442Z,97698.03
2022-09-20T10:51:34.369Z,97694.72
2022-09-20T10:54:33.181Z,97703.84
2022-09-20T10:57:30.942Z,97702.59
2022-09-20T11:00:19.222Z,97702.59
2022-09-20T11:03:31.285Z,97702.72
2022-09-20T11:06:18.780Z,97700.56
2022-09-20T11:08:51.682Z,97694.91
2022-09-20T11:11:23.566Z,97691.88
2022-09-20T11:13:59.376Z,97697.59
2022-09-20T11:16:37.748Z,97692.97
2022-09-20T11:19:32.906Z,97695.19
2022-09-20T11:22:20.023Z,97696.56
2022-09-20T11:25:04.434Z,97701.84
2022-09-20T11:27:43.979Z,97695.63
2022-09-20T11:30:19.503Z,97714.19
2022-09-20T11:33:08.251Z,97704.25
2022-09-20T11:36:25.788Z,97705.94
2022-09-20T11:42:24.287Z,97701.53
2022-09-20T11:44:51.738Z,97698.50
2022-09-20T11:47:53.236Z,97699.91
2022-09-20T11:50:38.930Z,97702.41
2022-09-20T11:53:42.662Z,97699.59
2022-09-20T11:56:18.168Z,97692.34
2022-09-20T11:58:55.249Z,97695.22
2022-09-20T12:01:28.901Z,97680.09
2022-09-20T12:04:20.627Z,97698.44
2022-09-20T12:06:45.257Z,97689.78
2022-09-20T12:09:32.936Z,97699.00
2022-09-20T12:12:13.529Z,97685.44
2022-09-20T12:14:40.328Z,97688.47
2022-09-20T12:18:05.538Z,97687.25
2022-09-20T12:20:38.932Z,97681.38
2022-09-20T12:23:43.192Z,97668.31
2022-09-20T12:26:15.711Z,97668.91
2022-09-20T12:28:50.114Z,97667.09
2022-09-20T12:31:19.866Z,97673.59
2022-09-20T12:34:11.888Z,97670.25
2022-09-20T12:36:44.137Z,97672.13
2022-09-20T12:39:17.649Z,97674.88
2022-09-20T12:41:49.615Z,97673.81
2022-09-20T12:44:40.418Z,97679.34
2022-09-20T12:47:19.792Z,97672.72
2022-09-20T12:50:04.911Z,97670.09
2022-09-20T12:53:04.260Z,97671.09
2022-09-20T12:55:50.492Z,97660.97
2022-09-20T12:58:26.752Z,97658.91
2022-09-20T13:00:59.124Z,97658.13
2022-09-20T13:03:35.334Z,97651.75
2022-09-20T13:06:05.712Z,97650.06
2022-09-20T13:08:43.870Z,97649.63
2022-09-20T13:11:51.060Z,97658.59
2022-09-20T13:14:22.810Z,97664.69
2022-09-20T13:16:56.511Z,97660.84
2022-09-20T13:19:29.758Z,97665.03
2022-09-20T13:22:11.402Z,97664.63
2022-09-20T13:24:41.643Z,97655.66
2022-09-20T13:27:19.355Z,97653.56
2022-09-20T13:29:46.272Z,97648.56
2022-09-20T13:32:26.802Z,97644.97
2022-09-20T13:35:16.839Z,97641.09
2022-09-20T13:37:58.360Z,97638.16
2022-09-20T13:40:34.161Z,97642.31
2022-09-20T13:43:33.662Z,97649.44
2022-09-20T13:46:08.467Z,97647.25
2022-09-20T13:48:35.283Z,97657.41
2022-09-20T13:51:02.492Z,97645.75
2022-09-20T13:53:41.544Z,97659.16
2022-09-20T13:56:25.586Z,97647.78
2022-09-20T13:58:52.734Z,97646.41
2022-09-20T14:01:36.806Z,97648.53
2022-09-20T14:04:23.644Z,97648.78
2022-09-20T14:06:52.580Z,97659.50
2022-09-20T14:09:26.542Z,97652.41
2022-09-20T14:11:54.063Z,97651.72
2022-09-20T14:14:23.031Z,97654.22
2022-09-20T14:16:54.564Z,97656.25
2022-09-20T14:19:26.561Z,97651.94
2022-09-20T14:21:53.179Z,97663.41
2022-09-20T14:24:30.373Z,97674.97
2022-09-20T14:27:03.454Z,97677.09
2022-09-20T14:29:40.038Z,97678.22
2022-09-20T14:32:15.172Z,97682.19
2022-09-20T14:34:41.835Z,97691.69
2022-09-20T14:37:48.190Z,97707.34
2022-09-20T14:40:27.265Z,97715.69
2022-09-20T14:42:56.854Z,97728.97
2022-09-20T14:45:26.348Z,97724.47
2022-09-20T14:48:10.429Z,97732.34
2022-09-20T14:50:43.325Z,97725.34
2022-09-20T14:53:12.566Z,97720.59
2022-09-20T14:55:42.253Z,97718.47
2022-09-20T14:58:16.343Z,97724.66
2022-09-20T15:00:53.642Z,97726.81
2022-09-20T15:03:30.981Z,97733.72
2022-09-20T15:06:02.365Z,97735.53
2022-09-20T15:08:28.995Z,97725.41
2022-09-20T15:10:55.542Z,97724.66
2022-09-20T15:13:24.487Z,97737.66
2022-09-20T15:15:53.583Z,97725.63
2022-09-20T15:18:21.889Z,97726.44
2022-09-20T15:20:50.190Z,97729.06
2022-09-20T15:23:17.453Z,97727.75
2022-09-20T15:25:44.000Z,97721.31
2022-09-20T15:28:16.872Z,97723.94
2022-09-20T15:30:45.041Z,97722.53
2022-09-20T15:33:12.373Z,97726.19
2022-09-20T15:35:40.181Z,97725.38
2022-09-20T15:38:11.648Z,97730.59
2022-09-20T15:40:42.765Z,97731.78
2022-09-20T15:43:13.250Z,97733.06
2022-09-20T15:46:00.314Z,97740.09
2022-09-20T15:48:30.306Z,97740.19
2022-09-20T15:51:02.847Z,97744.41
2022-09-20T15:53:41.074Z,97746.59
2022-09-20T15:56:22.834Z,97743.59
2022-09-20T15:58:59.321Z,97746.47
2022-09-20T16:01:27.039Z,97745.63
2022-09-20T16:03:53.987Z,97740.88
2022-09-20T16:06:20.939Z,97749.31
2022-09-20T16:08:48.087Z,97752.44
2022-09-20T16:11:21.772Z,97754.56
2022-09-20T16:13:56.677Z,97755.38
2022-09-20T16:16:27.589Z,97753.47
2022-09-20T16:19:12.675Z,97759.38
2022-09-20T16:21:43.210Z,97757.06
2022-09-20T16:24:12.349Z,97754.81
2022-09-20T16:26:39.687Z,97764.50
2022-09-20T16:29:09.446Z,97767.56
2022-09-20T16:31:36.628Z,97773.44
2022-09-20T16:34:07.880Z,97775.66
2022-09-20T16:36:36.869Z,97776.28
2022-09-20T16:39:03.603Z,97775.56
2022-09-20T16:41:32.361Z,97779.72
2022-09-20T16:43:58.797Z,97778.94
2022-09-20T16:46:29.071Z,97775.75
2022-09-20T16:48:56.751Z,97779.00
2022-09-20T16:51:33.457Z,97786.13
2022-09-20T16:54:11.685Z,97783.03
2022-09-20T16:56:42.445Z,97787.97
2022-09-20T16:59:09.260Z,97787.94
2022-09-20T17:01:36.926Z,97790.56
2022-09-20T17:04:07.550Z,97792.06
2022-09-20T17:06:35.766Z,97800.22
2022-09-20T17:09:03.604Z,97799.59
2022-09-20T17:11:33.052Z,97796.59
2022-09-20T17:14:00.103Z,97801.69
2022-09-20T17:16:31.896Z,97804.41
2022-09-20T17:19:09.582Z,97807.78
2022-09-20T17:21:38.662Z,97803.94
2022-09-20T17:24:07.661Z,97812.09
2022-09-20T17:26:40.204Z,97821.59
2022-09-20T17:29:11.030Z,97822.25
2022-09-20T17:31:41.929Z,97825.47
2022-09-20T17:34:10.992Z,97824.84
2022-09-20T17:36:40.748Z,97827.97
2022-09-20T17:39:12.150Z,97838.16
2022-09-20T17:41:46.848Z,97852.06
2022-09-20T17:44:17.208Z,97849.97
2022-09-20T17:46:46.124Z,97861.16
2022-09-20T17:49:18.091Z,97865.03
2022-09-20T17:51:50.077Z,97870.56
2022-09-20T17:54:19.372Z,97879.69
2022-09-20T17:56:48.461Z,97879.25
2022-09-20T17:59:16.879Z,97888.16
2022-09-20T18:01:45.052Z,97879.88
2022-09-20T18:04:11.709Z,97876.16
2022-09-20T18:06:45.207Z,97880.66
2022-09-20T18:09:15.307Z,97893.50
2022-09-20T18:11:46.351Z,97898.25
2022-09-20T18:14:13.484Z,97882.78
2022-09-20T18:16:40.359Z,97883.84
2022-09-20T18:19:10.642Z,97879.13
2022-09-20T18:21:39.218Z,97882.59
2022-09-20T18:24:09.935Z,97880.06
2022-09-20T18:26:38.007Z,97877.06
2022-09-20T18:29:07.680Z,97893.91
2022-09-20T18:31:43.198Z,97895.88
2022-09-20T18:34:20.814Z,97901.94
2022-09-20T18:36:58.286Z,97910.72
2022-09-20T18:39:27.853Z,97913.53
2022-09-20T18:41:54.837Z,97919.03
2022-09-20T18:44:22.649Z,97911.53
2022-09-20T18:46:52.279Z,97910.88
2022-09-20T18:49:20.996Z,97910.59
2022-09-20T18:51:48.580Z,97919.69
2022-09-20T18:54:15.976Z,97917.56
2022-09-20T18:56:44.307Z,97921.94
2022-09-20T18:59:18.504Z,97920.66
2022-09-20T19:01:53.312Z,97925.25
2022-09-20T19:04:45.945Z,97929.31
2022-09-20T19:07:27.943Z,97937.13
2022-09-20T19:10:00.467Z,97937.59
2022-09-20T19:12:48.444Z,97934.19
2022-09-20T19:15:52.649Z,97935.03
2022-09-20T19:18:58.719Z,97946.88
2022-09-20T19:21:35.342Z,97944.81
2022-09-20T19:24:21.690Z,97947.53
2022-09-20T19:26:48.773Z,97942.31
2022-09-20T19:29:22.337Z,97943.81
2022-09-20T19:31:51.341Z,97943.38
2022-09-20T19:34:21.350Z,97950.47
2022-09-20T19:37:19.590Z,97948.06
2022-09-20T19:40:09.075Z,97949.72
2022-09-20T19:42:36.237Z,97949.47
2022-09-20T19:45:31.291Z,97950.00
2022-09-20T19:48:23.716Z,97950.91
2022-09-20T19:50:52.854Z,97954.41
2022-09-20T19:53:27.049Z,97951.34
2022-09-20T19:56:14.424Z,97951.88
2022-09-20T19:58:43.246Z,97957.75
2022-09-20T20:01:10.262Z,97959.78
2022-09-20T20:03:37.030Z,97962.50
2022-09-20T20:06:20.859Z,97965.00
2022-09-20T20:08:54.914Z,97965.41
2022-09-20T20:11:38.967Z,97969.28
2022-09-20T20:14:13.846Z,97971.94
2022-09-20T20:16:43.061Z,97976.75
2022-09-20T20:19:27.686Z,97983.28
2022-09-20T20:22:11.346Z,97978.06
2022-09-20T20:24:51.308Z,97988.47
2022-09-20T20:27:18.640Z,97980.84
2022-09-20T20:29:45.162Z,97984.84
2022-09-20T20:32:11.692Z,97989.56
2022-09-20T20:34:40.482Z,97990.69
2022-09-20T20:37:07.978Z,97989.09
2022-09-20T20:39:34.775Z,97994.94
2022-09-20T20:42:02.832Z,97995.28
2022-09-20T20:44:35.341Z,97991.56
2022-09-20T20:47:03.281Z,97996.75
2022-09-20T20:49:32.286Z,98003.00
2022-09-20T20:52:02.836Z,98000.31
2022-09-20T20:54:32.207Z,97990.00
2022-09-20T20:57:03.272Z,97998.91
2022-09-20T20:59:29.817Z,98011.84
2022-09-20T21:01:58.491Z,98009.84
2022-09-20T21:04:25.320Z,98010.09
2022-09-20T21:06:51.733Z,98010.75
2022-09-20T21:09:18.144Z,98000.38
2022-09-20T21:11:44.815Z,98005.38
2022-09-20T21:14:12.544Z,98006.06
2022-09-20T21:16:44.161Z,98011.94
2022-09-20T21:19:18.159Z,98002.28
2022-09-20T21:21:47.753Z,98004.69
2022-09-20T21:24:22.200Z,98005.38
2022-09-20T21:26:48.721Z,98007.34
2022-09-20T21:29:15.877Z,98014.66
2022-09-20T21:31:46.817Z,98007.41
2022-09-20T21:34:15.318Z,98011.91
2022-09-20T21:36:42.669Z,98021.06
2022-09-20T21:39:09.223Z,98021.06
2022-09-20T21:41:37.542Z,98027.41
2022-09-20T21:44:05.775Z,98019.28
2022-09-20T21:46:39.141Z,98023.13
2022-09-20T21:49:08.533Z,98019.34
2022-09-20T21:51:38.284Z,98017.06
2022-09-20T21:54:05.249Z,98018.59
2022-09-20T21:56:34.856Z,98023.88
2022-09-20T21:59:04.368Z,98027.41
2022-09-20T22:01:36.313Z,98025.53
2022-09-20T22:04:08.177Z,98022.56
2022-09-20T22:06:37.550Z,98026.63
2022-09-20T22:09:12.299Z,98023.88
2022-09-20T22:11:45.820Z,98021.59
2022-09-20T22:14:13.945Z,98027.44
2022-09-20T22:16:42.252Z,98027.59
2022-09-20T22:19:11.154Z,98027.03
2022-09-20T22:21:39.952Z,98033.47
2022-09-20T22:24:08.976Z,98033.16
2022-09-20T22:26:38.554Z,98032.31
2022-09-20T22:29:06.477Z,98027.34
2022-09-20T22:31:38.885Z,98033.09
2022-09-20T22:34:07.287Z,98031.50
2022-09-20T22:36:36.349Z,98038.63
2022-09-20T22:39:05.096Z,98034.53
2022-09-20T22:41:31.696Z,98028.97
2022-09-20T22:43:58.105Z,98021.63
2022-09-20T22:46:29.399Z,98029.34
2022-09-20T22:48:56.483Z,98030.44
2022-09-20T22:51:29.138Z,98031.66
2022-09-20T22:53:55.872Z,98031.03
2022-09-20T22:56:25.026Z,98038.69
2022-09-20T22:58:56.719Z,98036.69
2022-09-20T23:01:25.985Z,98032.72
2022-09-20T23:04:13.773Z,98031.03
2022-09-20T23:06:48.231Z,98030.59
2022-09-20T23:09:16.442Z,98029.19
2022-09-20T23:11:43.440Z,98035.97
2022-09-20T23:14:15.198Z,98038.81
2022-09-20T23:16:42.225Z,98037.44
2022-09-20T23:19:09.353Z,98037.44
2022-09-20T23:21:37.840Z,98042.28
2022-09-20T23:24:07.152Z,98032.50
2022-09-20T23:26:35.979Z,98036.22
2022-09-20T23:29:05.583Z,98040.88
2022-09-20T23:31:34.612Z,98041.50
2022-09-20T23:34:02.909Z,98041.63
2022-09-20T23:36:33.707Z,98047.81
2022-09-20T23:39:02.446Z,98045.69
2022-09-20T23:41:29.611Z,98050.19
2022-09-20T23:43:56.215Z,98051.25
2022-09-20T23:46:25.210Z,98049.19
2022-09-20T23:48:52.454Z,98042.78
2022-09-20T23:51:22.391Z,98044.59
2022-09-20T23:53:50.206Z,98036.94
2022-09-20T23:56:19.532Z,98047.53
2022-09-20T23:58:46.803Z,98038.81
